Rhineland, Missouri
Current Conditions -  °F | °C
As of 4:15 PM on Sunday 21 Dec 2014 (Local Time) from KFYG Reporting Station
Overcast Overcast  
Wind Chill: 35°   Ceiling: 4400
Heat Index: 41°   Visibility: 10mi
Dew Point: 36°   Wind: 10mph
Humidity: 81%   Direction: 150°SSE
Pressure: 30"   Gusts: NA
Location:  38.72°N, 91.52°W
Report Text: KFYG 212215Z AUTO 15009KT 10SM FEW021 SCT038 OVC044 05/02 A3000 RMK AO2
Loading
Personal Weather Stations






























Interactive Weather Map New forecast layout! Learn more

10-Day Weather Forecast

Advertisements
Track Severe Weather on mobile